EDLW/DTM METAR and TAF weather

Enter ICAO airport designator
Station Type Date Time Source
EDLW METAR 2019/06/16 07:50 UTC NOAA

EDLW 160750Z 25006KT 220V300 CAVOK 20/12 Q1019


Station Type Date Time Source
EDLW Decoded METAR 2019/06/16 07:50 UTC NOAA

Dortmund / Wickede, Germany (EDLW) 51-31N 007-37E
Jun 16, 2019 - 03:50 AM EDT / 2019.06.16 0750 UTC
Wind: from the WSW (250 degrees) at 7 MPH (6 KT) (direction variable):0
Visibility: greater than 7 mile(s):0
Temperature: 68 F (20 C)
Dew Point: 53 F (12 C)
Relative Humidity: 59%
Pressure (altimeter): 30.09 in. Hg (1019 hPa)
ob: EDLW 160750Z 25006KT 220V300 CAVOK 20/12 Q1019
cycle: 8

Station Type Date Time Source
EDLW TAF 2019/06/16 06:27 UTC NOAA

TAF EDLW 160500Z 1606/1706 19006KT 9999 SCT040
BECMG 1606/1609 25008KT
BECMG 1617/1620 17004KT

Example: see airport list